Blenker, WI (54415)

6:52 AM CDT on July 21, 2019 (GMT -0500)
Rudolph, Town of Carson, Portage County, WI | | Change Station
Active Advisory: Flood Warning

Elev 1141 ft 44.53 °N, 89.79 °W | Updated 3 minutes ago

Clear
Clear
59.2 °F
Feels Like 59.2 °F
N
2.9
Wind Variable Wind from NNE
Gusts 5.0 mph

Today
High -- | Low -- °F
--% Chance of Precip.
Yesterday
High -- | Low -- °F
Precip. -- in
Pressure 30.00 in
Visibility 10.0 miles
Clouds Clear
Dew Point 59 °F
Humidity 98%
Rainfall 0.01 in
Snow Depth Not available.
5:34 AM 8:37 PM
Waning Gibbous, 82% visible
METAR KMFI 211054Z AUTO 01005KT 10SM CLR 16/13 A3000 RMK AO2 SLPNO T01610133 $
Pressure 30.00 in
Visibility 10.0 miles
Clouds Clear
Dew Point 59 °F
Humidity 98%
Rainfall 0.01 in
Snow Depth Not available.
5:34 AM 8:37 PM
Waning Gibbous, 82% visible
METAR KMFI 211054Z AUTO 01005KT 10SM CLR 16/13 A3000 RMK AO2 SLPNO T01610133 $

Get Your Daily Forecast Email!

Thanks for signing up!

Be on the lookout for a verification email in your inbox.

You'll start receiving severe weather alerts in your inbox..

×

10-Day Weather Forecast

Almanac

Astronomy

Jul. 21, 2019 Rise Set
Actual Time
Civil Twilight
Nautical Twilight
Astronomical Twilight
Moon
Length of Visible Light
Length of Day
Tomorrow will be .
, % of the Moon is Illuminated

Today's Extremes

State Highs State Lows

Community

WunderPhotos

Category 6

Welcome to Category 6. This is the collective home for Weather Underground's featured writeups by Dr. Jeff Masters (right), Bob Henson (left), Chris Burt, and other regular contributors.

Nearby

Air Quality

  Air Quality AQ Index Pollutant
Not available.

Snow Depth

Station Depth Elevation

Earthquake Activity

City Distance Mag. Time & Date
Minimum magnitude displayed is 2.5.

Coastal Water Temperatures

Place Temperature

Stations

Nearby Weather Stations

Station Location Temp. Windchill Dew Point Humidity Wind Precip. Elev Updated Type
                   

Watches & Warnings

Flood Warning
Issued: 4:12 AM CDT Jul. 21, 2019 – National Weather Service

The National Weather Service in Green Bay has issued a

* Flood Warning for
the Yellow River at Babcock.
* At 3:00 am Sunday the stage was 10.5 feet and rising rapidly.
* Flood stage is 12.0 feet.
* Minor flooding is forecast.
* Forecast... rise above flood stage by late this morning and continue
to rise to near 15.0 feet by this evening. The river will fall
below flood stage by early tomorrow.
* Impacts at 15.6 feet. Floodwaters are near a couple of homes in the
Babcock area near Highway 173.


Lat... Lon 4441 9019 4441 9007 4425 9007 4425 9019